sensor_id;sensor_type;location;lat;lon;timestamp;temperature;humidity
17202;DHT22;8717;53.588;10.176;2024-02-16T00:01:01;10.80;99.90
17202;DHT22;8717;53.588;10.176;2024-02-16T00:03:28;10.70;99.90
17202;DHT22;8717;53.588;10.176;2024-02-16T00:05:55;10.60;99.90
17202;DHT22;8717;53.588;10.176;2024-02-16T00:08:22;10.60;99.90
17202;DHT22;8717;53.588;10.176;2024-02-16T00:10:50;10.60;99.90
17202;DHT22;8717;53.588;10.176;2024-02-16T00:13:18;10.50;99.90
17202;DHT22;8717;53.588;10.176;2024-02-16T00:15:45;10.50;99.90
17202;DHT22;8717;53.588;10.176;2024-02-16T00:18:12;10.50;99.90
17202;DHT22;8717;53.588;10.176;2024-02-16T00:20:39;10.40;99.90
17202;DHT22;8717;53.588;10.176;2024-02-16T00:23:06;10.40;99.90
17202;DHT22;8717;53.588;10.176;2024-02-16T00:25:33;10.40;99.90
17202;DHT22;8717;53.588;10.176;2024-02-16T00:28:01;10.40;99.90
17202;DHT22;8717;53.588;10.176;2024-02-16T00:30:28;10.30;99.90
17202;DHT22;8717;53.588;10.176;2024-02-16T00:32:55;10.30;99.90
17202;DHT22;8717;53.588;10.176;2024-02-16T00:35:22;10.30;99.90
17202;DHT22;8717;53.588;10.176;2024-02-16T00:37:48;10.20;99.90
17202;DHT22;8717;53.588;10.176;2024-02-16T00:40:15;10.20;99.90
17202;DHT22;8717;53.588;10.176;2024-02-16T00:42:42;10.20;99.90
17202;DHT22;8717;53.588;10.176;2024-02-16T00:45:11;10.20;99.90
17202;DHT22;8717;53.588;10.176;2024-02-16T00:47:38;10.20;99.90
17202;DHT22;8717;53.588;10.176;2024-02-16T00:50:05;10.20;99.90
17202;DHT22;8717;53.588;10.176;2024-02-16T00:52:34;10.10;99.90
17202;DHT22;8717;53.588;10.176;2024-02-16T00:55:04;10.10;99.90
17202;DHT22;8717;53.588;10.176;2024-02-16T00:57:31;10.10;99.90
17202;DHT22;8717;53.588;10.176;2024-02-16T00:59:59;10.10;99.90
17202;DHT22;8717;53.588;10.176;2024-02-16T01:02:27;10.10;99.90
17202;DHT22;8717;53.588;10.176;2024-02-16T01:04:54;10.10;99.90
17202;DHT22;8717;53.588;10.176;2024-02-16T01:07:27;10.00;99.90
17202;DHT22;8717;53.588;10.176;2024-02-16T01:09:54;10.00;99.90
17202;DHT22;8717;53.588;10.176;2024-02-16T01:12:22;10.00;99.90
17202;DHT22;8717;53.588;10.176;2024-02-16T01:14:49;9.90;99.90
17202;DHT22;8717;53.588;10.176;2024-02-16T01:17:15;10.00;99.90
17202;DHT22;8717;53.588;10.176;2024-02-16T01:19:43;9.90;99.90
17202;DHT22;8717;53.588;10.176;2024-02-16T01:22:12;9.90;99.90
17202;DHT22;8717;53.588;10.176;2024-02-16T01:24:39;9.90;99.90
17202;DHT22;8717;53.588;10.176;2024-02-16T01:27:06;9.80;99.90
17202;DHT22;8717;53.588;10.176;2024-02-16T01:29:33;9.80;99.90
17202;DHT22;8717;53.588;10.176;2024-02-16T01:32:00;9.70;99.90
17202;DHT22;8717;53.588;10.176;2024-02-16T01:34:27;9.70;99.90
17202;DHT22;8717;53.588;10.176;2024-02-16T01:36:57;9.70;99.90
17202;DHT22;8717;53.588;10.176;2024-02-16T01:39:23;9.60;99.90
17202;DHT22;8717;53.588;10.176;2024-02-16T01:41:50;9.60;99.90
17202;DHT22;8717;53.588;10.176;2024-02-16T01:44:17;9.60;99.90
17202;DHT22;8717;53.588;10.176;2024-02-16T01:46:45;9.50;99.90
17202;DHT22;8717;53.588;10.176;2024-02-16T01:49:12;9.50;99.90
17202;DHT22;8717;53.588;10.176;2024-02-16T01:51:40;9.50;99.90
17202;DHT22;8717;53.588;10.176;2024-02-16T01:54:08;9.50;99.90
17202;DHT22;8717;53.588;10.176;2024-02-16T01:56:35;9.50;99.90
17202;DHT22;8717;53.588;10.176;2024-02-16T01:59:03;9.50;99.90
17202;DHT22;8717;53.588;10.176;2024-02-16T02:01:30;9.50;99.90
17202;DHT22;8717;53.588;10.176;2024-02-16T02:03:57;9.50;99.90
17202;DHT22;8717;53.588;10.176;2024-02-16T02:06:24;9.50;99.90
17202;DHT22;8717;53.588;10.176;2024-02-16T02:08:52;9.40;99.90
17202;DHT22;8717;53.588;10.176;2024-02-16T02:11:21;9.40;99.90
17202;DHT22;8717;53.588;10.176;2024-02-16T02:13:49;9.40;99.90
17202;DHT22;8717;53.588;10.176;2024-02-16T02:16:17;9.50;99.90
17202;DHT22;8717;53.588;10.176;2024-02-16T02:18:45;9.50;99.90
17202;DHT22;8717;53.588;10.176;2024-02-16T02:21:12;9.50;99.90
17202;DHT22;8717;53.588;10.176;2024-02-16T02:23:42;9.50;99.90
17202;DHT22;8717;53.588;10.176;2024-02-16T02:26:09;9.50;99.90
17202;DHT22;8717;53.588;10.176;2024-02-16T02:28:36;9.50;99.90
17202;DHT22;8717;53.588;10.176;2024-02-16T02:31:03;9.50;99.90
17202;DHT22;8717;53.588;10.176;2024-02-16T02:33:30;9.50;99.90
17202;DHT22;8717;53.588;10.176;2024-02-16T02:35:57;9.60;99.90
17202;DHT22;8717;53.588;10.176;2024-02-16T02:38:25;9.60;99.90
17202;DHT22;8717;53.588;10.176;2024-02-16T02:40:54;9.60;99.90
17202;DHT22;8717;53.588;10.176;2024-02-16T02:43:20;9.60;99.90
17202;DHT22;8717;53.588;10.176;2024-02-16T02:45:48;9.60;99.90
17202;DHT22;8717;53.588;10.176;2024-02-16T02:48:15;9.60;99.90
17202;DHT22;8717;53.588;10.176;2024-02-16T02:50:43;9.60;99.90
17202;DHT22;8717;53.588;10.176;2024-02-16T02:53:10;9.60;99.90
17202;DHT22;8717;53.588;10.176;2024-02-16T02:55:37;9.60;99.90
17202;DHT22;8717;53.588;10.176;2024-02-16T02:58:05;9.60;99.90
17202;DHT22;8717;53.588;10.176;2024-02-16T03:00:32;9.60;99.90
17202;DHT22;8717;53.588;10.176;2024-02-16T03:02:59;9.50;99.90
17202;DHT22;8717;53.588;10.176;2024-02-16T03:05:27;9.50;99.90
17202;DHT22;8717;53.588;10.176;2024-02-16T03:07:54;9.50;99.90
17202;DHT22;8717;53.588;10.176;2024-02-16T03:10:21;9.50;99.90
17202;DHT22;8717;53.588;10.176;2024-02-16T03:12:49;9.50;99.90
17202;DHT22;8717;53.588;10.176;2024-02-16T03:15:18;9.50;99.90
17202;DHT22;8717;53.588;10.176;2024-02-16T03:17:45;9.60;99.90
17202;DHT22;8717;53.588;10.176;2024-02-16T03:20:13;9.50;99.90
17202;DHT22;8717;53.588;10.176;2024-02-16T03:22:41;9.50;99.90
17202;DHT22;8717;53.588;10.176;2024-02-16T03:25:08;9.50;99.90
17202;DHT22;8717;53.588;10.176;2024-02-16T03:27:35;9.60;99.90
17202;DHT22;8717;53.588;10.176;2024-02-16T03:30:04;9.60;99.90
17202;DHT22;8717;53.588;10.176;2024-02-16T03:32:32;9.60;99.90
17202;DHT22;8717;53.588;10.176;2024-02-16T03:35:00;9.60;99.90
17202;DHT22;8717;53.588;10.176;2024-02-16T03:37:26;9.70;99.90
17202;DHT22;8717;53.588;10.176;2024-02-16T03:39:53;9.60;99.90
17202;DHT22;8717;53.588;10.176;2024-02-16T03:42:20;9.70;99.90
17202;DHT22;8717;53.588;10.176;2024-02-16T03:44:47;9.70;99.90
17202;DHT22;8717;53.588;10.176;2024-02-16T03:47:15;9.70;99.90
17202;DHT22;8717;53.588;10.176;2024-02-16T03:49:43;9.70;99.90
17202;DHT22;8717;53.588;10.176;2024-02-16T03:52:10;9.70;99.90
17202;DHT22;8717;53.588;10.176;2024-02-16T03:54:37;9.80;99.90
17202;DHT22;8717;53.588;10.176;2024-02-16T03:57:04;9.80;99.90
17202;DHT22;8717;53.588;10.176;2024-02-16T03:59:34;9.70;99.90
17202;DHT22;8717;53.588;10.176;2024-02-16T04:02:01;9.80;99.90
17202;DHT22;8717;53.588;10.176;2024-02-16T04:04:28;9.80;99.90
17202;DHT22;8717;53.588;10.176;2024-02-16T04:06:56;9.70;99.90
17202;DHT22;8717;53.588;10.176;2024-02-16T04:09:23;9.70;99.90
17202;DHT22;8717;53.588;10.176;2024-02-16T04:11:50;9.80;99.90
17202;DHT22;8717;53.588;10.176;2024-02-16T04:14:16;9.80;99.90
17202;DHT22;8717;53.588;10.176;2024-02-16T04:16:43;9.70;99.90
17202;DHT22;8717;53.588;10.176;2024-02-16T04:19:11;9.80;99.90
17202;DHT22;8717;53.588;10.176;2024-02-16T04:21:37;9.80;99.90
17202;DHT22;8717;53.588;10.176;2024-02-16T04:24:07;9.70;99.90
17202;DHT22;8717;53.588;10.176;2024-02-16T04:26:34;9.80;99.90
17202;DHT22;8717;53.588;10.176;2024-02-16T04:29:02;9.80;99.90
17202;DHT22;8717;53.588;10.176;2024-02-16T04:31:29;9.80;99.90
17202;DHT22;8717;53.588;10.176;2024-02-16T04:33:56;9.80;99.90
17202;DHT22;8717;53.588;10.176;2024-02-16T04:36:23;9.80;99.90
17202;DHT22;8717;53.588;10.176;2024-02-16T04:38:50;9.80;99.90
17202;DHT22;8717;53.588;10.176;2024-02-16T04:41:19;9.80;99.90
17202;DHT22;8717;53.588;10.176;2024-02-16T04:43:46;9.80;99.90
17202;DHT22;8717;53.588;10.176;2024-02-16T04:46:14;9.80;99.90
17202;DHT22;8717;53.588;10.176;2024-02-16T04:48:42;9.80;99.90
17202;DHT22;8717;53.588;10.176;2024-02-16T04:51:09;9.80;99.90
17202;DHT22;8717;53.588;10.176;2024-02-16T04:53:37;9.80;99.90
17202;DHT22;8717;53.588;10.176;2024-02-16T04:56:05;9.80;99.90
17202;DHT22;8717;53.588;10.176;2024-02-16T04:58:35;9.80;99.90
17202;DHT22;8717;53.588;10.176;2024-02-16T05:01:07;9.80;99.90
17202;DHT22;8717;53.588;10.176;2024-02-16T05:03:34;9.80;99.90
17202;DHT22;8717;53.588;10.176;2024-02-16T05:06:01;9.80;99.90
17202;DHT22;8717;53.588;10.176;2024-02-16T05:08:29;9.80;99.90
17202;DHT22;8717;53.588;10.176;2024-02-16T05:10:57;9.80;99.90
17202;DHT22;8717;53.588;10.176;2024-02-16T05:13:23;9.80;99.90
17202;DHT22;8717;53.588;10.176;2024-02-16T05:15:53;9.80;99.90
17202;DHT22;8717;53.588;10.176;2024-02-16T05:18:21;9.80;99.90
17202;DHT22;8717;53.588;10.176;2024-02-16T05:20:48;9.80;99.90
17202;DHT22;8717;53.588;10.176;2024-02-16T05:23:15;9.80;99.90
17202;DHT22;8717;53.588;10.176;2024-02-16T05:25:42;9.80;99.90
17202;DHT22;8717;53.588;10.176;2024-02-16T05:28:09;9.80;99.90
17202;DHT22;8717;53.588;10.176;2024-02-16T05:30:37;9.80;99.90
17202;DHT22;8717;53.588;10.176;2024-02-16T05:33:06;9.80;99.90
17202;DHT22;8717;53.588;10.176;2024-02-16T05:35:32;9.80;99.90
17202;DHT22;8717;53.588;10.176;2024-02-16T05:37:59;9.80;99.90
17202;DHT22;8717;53.588;10.176;2024-02-16T05:40:33;9.80;99.90
17202;DHT22;8717;53.588;10.176;2024-02-16T05:43:11;9.80;99.90
17202;DHT22;8717;53.588;10.176;2024-02-16T05:45:38;9.80;99.90
17202;DHT22;8717;53.588;10.176;2024-02-16T05:48:08;9.80;99.90
17202;DHT22;8717;53.588;10.176;2024-02-16T05:50:36;9.70;99.90
17202;DHT22;8717;53.588;10.176;2024-02-16T05:53:04;9.70;99.90
17202;DHT22;8717;53.588;10.176;2024-02-16T05:55:31;9.70;99.90
17202;DHT22;8717;53.588;10.176;2024-02-16T05:57:58;9.70;99.90
17202;DHT22;8717;53.588;10.176;2024-02-16T06:00:25;9.70;99.90
17202;DHT22;8717;53.588;10.176;2024-02-16T06:02:53;9.70;99.90
17202;DHT22;8717;53.588;10.176;2024-02-16T06:05:21;9.70;99.90
17202;DHT22;8717;53.588;10.176;2024-02-16T06:07:48;9.70;99.90
17202;DHT22;8717;53.588;10.176;2024-02-16T06:10:15;9.80;99.90
17202;DHT22;8717;53.588;10.176;2024-02-16T06:12:43;9.70;99.90
17202;DHT22;8717;53.588;10.176;2024-02-16T06:15:10;9.70;99.90
17202;DHT22;8717;53.588;10.176;2024-02-16T06:17:37;9.70;99.90
17202;DHT22;8717;53.588;10.176;2024-02-16T06:20:07;9.60;99.90
17202;DHT22;8717;53.588;10.176;2024-02-16T06:22:36;9.60;99.90
17202;DHT22;8717;53.588;10.176;2024-02-16T06:25:04;9.60;99.90
17202;DHT22;8717;53.588;10.176;2024-02-16T06:27:31;9.60;99.90
17202;DHT22;8717;53.588;10.176;2024-02-16T06:29:58;9.60;99.90
17202;DHT22;8717;53.588;10.176;2024-02-16T06:32:24;9.60;99.90
17202;DHT22;8717;53.588;10.176;2024-02-16T06:34:53;9.50;99.90
17202;DHT22;8717;53.588;10.176;2024-02-16T06:37:19;9.50;99.90
17202;DHT22;8717;53.588;10.176;2024-02-16T06:39:47;9.50;99.90
17202;DHT22;8717;53.588;10.176;2024-02-16T06:42:14;9.50;99.90
17202;DHT22;8717;53.588;10.176;2024-02-16T06:44:41;9.50;99.90
17202;DHT22;8717;53.588;10.176;2024-02-16T06:47:08;9.50;99.90
17202;DHT22;8717;53.588;10.176;2024-02-16T06:49:36;9.50;99.90
17202;DHT22;8717;53.588;10.176;2024-02-16T06:52:03;9.50;99.90
17202;DHT22;8717;53.588;10.176;2024-02-16T06:54:31;9.50;99.90
17202;DHT22;8717;53.588;10.176;2024-02-16T06:56:59;9.40;99.90
17202;DHT22;8717;53.588;10.176;2024-02-16T06:59:26;9.40;99.90
17202;DHT22;8717;53.588;10.176;2024-02-16T07:01:53;9.40;99.90
17202;DHT22;8717;53.588;10.176;2024-02-16T07:04:21;9.40;99.90
17202;DHT22;8717;53.588;10.176;2024-02-16T07:06:48;9.40;99.90
17202;DHT22;8717;53.588;10.176;2024-02-16T07:09:15;9.30;99.90
17202;DHT22;8717;53.588;10.176;2024-02-16T07:11:42;9.30;99.90
17202;DHT22;8717;53.588;10.176;2024-02-16T07:14:13;9.30;99.90
17202;DHT22;8717;53.588;10.176;2024-02-16T07:16:39;9.30;99.90
17202;DHT22;8717;53.588;10.176;2024-02-16T07:19:06;9.30;99.90
17202;DHT22;8717;53.588;10.176;2024-02-16T07:21:34;9.30;99.90
17202;DHT22;8717;53.588;10.176;2024-02-16T07:24:00;9.40;99.90
17202;DHT22;8717;53.588;10.176;2024-02-16T07:26:27;9.40;99.90
17202;DHT22;8717;53.588;10.176;2024-02-16T07:28:54;9.40;99.90
17202;DHT22;8717;53.588;10.176;2024-02-16T07:31:22;9.40;99.90
17202;DHT22;8717;53.588;10.176;2024-02-16T07:33:49;9.30;99.90
17202;DHT22;8717;53.588;10.176;2024-02-16T07:36:16;9.30;99.90
17202;DHT22;8717;53.588;10.176;2024-02-16T07:38:44;9.30;99.90
17202;DHT22;8717;53.588;10.176;2024-02-16T07:41:11;9.30;99.90
17202;DHT22;8717;53.588;10.176;2024-02-16T07:43:38;9.40;99.90
17202;DHT22;8717;53.588;10.176;2024-02-16T07:46:06;9.40;99.90
17202;DHT22;8717;53.588;10.176;2024-02-16T07:48:35;9.50;99.90
17202;DHT22;8717;53.588;10.176;2024-02-16T07:51:01;9.50;99.90
17202;DHT22;8717;53.588;10.176;2024-02-16T07:53:30;9.60;99.90
17202;DHT22;8717;53.588;10.176;2024-02-16T07:55:59;9.70;99.90
17202;DHT22;8717;53.588;10.176;2024-02-16T07:58:25;9.70;99.90
17202;DHT22;8717;53.588;10.176;2024-02-16T08:00:53;9.80;99.90
17202;DHT22;8717;53.588;10.176;2024-02-16T08:03:21;9.90;99.90
17202;DHT22;8717;53.588;10.176;2024-02-16T08:05:49;10.00;99.90
17202;DHT22;8717;53.588;10.176;2024-02-16T08:08:16;10.10;99.90
17202;DHT22;8717;53.588;10.176;2024-02-16T08:10:43;10.20;99.90
17202;DHT22;8717;53.588;10.176;2024-02-16T08:13:10;10.30;99.90
17202;DHT22;8717;53.588;10.176;2024-02-16T08:15:37;10.30;99.90
17202;DHT22;8717;53.588;10.176;2024-02-16T08:18:04;10.40;99.90
17202;DHT22;8717;53.588;10.176;2024-02-16T08:20:32;10.50;99.90
17202;DHT22;8717;53.588;10.176;2024-02-16T08:23:00;10.50;99.90
17202;DHT22;8717;53.588;10.176;2024-02-16T08:25:27;10.60;99.90
17202;DHT22;8717;53.588;10.176;2024-02-16T08:27:55;10.60;99.90
17202;DHT22;8717;53.588;10.176;2024-02-16T08:30:23;10.70;99.90
17202;DHT22;8717;53.588;10.176;2024-02-16T08:32:51;10.80;99.90
17202;DHT22;8717;53.588;10.176;2024-02-16T08:35:17;10.90;99.90
17202;DHT22;8717;53.588;10.176;2024-02-16T08:37:45;11.00;99.90
17202;DHT22;8717;53.588;10.176;2024-02-16T08:40:13;11.10;99.90
17202;DHT22;8717;53.588;10.176;2024-02-16T08:42:41;11.20;99.90
17202;DHT22;8717;53.588;10.176;2024-02-16T08:45:08;11.20;99.90
17202;DHT22;8717;53.588;10.176;2024-02-16T08:47:35;11.30;99.90
17202;DHT22;8717;53.588;10.176;2024-02-16T08:50:03;11.30;99.90
17202;DHT22;8717;53.588;10.176;2024-02-16T08:52:31;11.30;99.90
17202;DHT22;8717;53.588;10.176;2024-02-16T08:54:58;11.20;99.90
17202;DHT22;8717;53.588;10.176;2024-02-16T08:57:27;11.20;99.90
17202;DHT22;8717;53.588;10.176;2024-02-16T08:59:53;11.20;99.90
17202;DHT22;8717;53.588;10.176;2024-02-16T09:02:21;11.10;99.90
17202;DHT22;8717;53.588;10.176;2024-02-16T09:04:49;11.00;99.90
17202;DHT22;8717;53.588;10.176;2024-02-16T09:07:16;11.00;99.90
17202;DHT22;8717;53.588;10.176;2024-02-16T09:09:43;10.90;99.90
17202;DHT22;8717;53.588;10.176;2024-02-16T09:12:10;10.80;99.90
17202;DHT22;8717;53.588;10.176;2024-02-16T09:14:38;10.80;99.90
17202;DHT22;8717;53.588;10.176;2024-02-16T09:17:05;10.80;99.90
17202;DHT22;8717;53.588;10.176;2024-02-16T09:19:32;10.80;99.90
17202;DHT22;8717;53.588;10.176;2024-02-16T09:21:59;10.70;99.90
17202;DHT22;8717;53.588;10.176;2024-02-16T09:24:28;10.80;99.90
17202;DHT22;8717;53.588;10.176;2024-02-16T09:26:55;10.80;99.90
17202;DHT22;8717;53.588;10.176;2024-02-16T09:29:22;10.80;99.90
17202;DHT22;8717;53.588;10.176;2024-02-16T09:31:50;10.80;99.90
17202;DHT22;8717;53.588;10.176;2024-02-16T09:34:17;10.90;99.90
17202;DHT22;8717;53.588;10.176;2024-02-16T09:36:44;10.90;99.90
17202;DHT22;8717;53.588;10.176;2024-02-16T09:39:10;11.00;99.90
17202;DHT22;8717;53.588;10.176;2024-02-16T09:41:41;11.00;99.90
17202;DHT22;8717;53.588;10.176;2024-02-16T09:44:08;11.00;99.90
17202;DHT22;8717;53.588;10.176;2024-02-16T09:46:35;11.00;99.90
17202;DHT22;8717;53.588;10.176;2024-02-16T09:49:04;11.10;99.90
17202;DHT22;8717;53.588;10.176;2024-02-16T09:51:31;11.10;99.90
17202;DHT22;8717;53.588;10.176;2024-02-16T09:53:58;11.10;99.90
17202;DHT22;8717;53.588;10.176;2024-02-16T09:56:27;11.10;99.90
17202;DHT22;8717;53.588;10.176;2024-02-16T09:58:53;11.10;99.90
17202;DHT22;8717;53.588;10.176;2024-02-16T10:01:22;11.20;99.90
17202;DHT22;8717;53.588;10.176;2024-02-16T10:03:50;11.20;99.90
17202;DHT22;8717;53.588;10.176;2024-02-16T10:06:18;11.30;99.90
17202;DHT22;8717;53.588;10.176;2024-02-16T10:08:50;11.40;99.90
17202;DHT22;8717;53.588;10.176;2024-02-16T10:11:18;11.40;99.90
17202;DHT22;8717;53.588;10.176;2024-02-16T10:13:56;11.50;99.90
17202;DHT22;8717;53.588;10.176;2024-02-16T10:16:23;11.60;99.90
17202;DHT22;8717;53.588;10.176;2024-02-16T10:18:50;11.70;99.90
17202;DHT22;8717;53.588;10.176;2024-02-16T10:21:25;11.80;99.90
17202;DHT22;8717;53.588;10.176;2024-02-16T10:24:05;12.00;99.90
17202;DHT22;8717;53.588;10.176;2024-02-16T10:26:34;12.00;99.90
17202;DHT22;8717;53.588;10.176;2024-02-16T10:29:03;12.20;99.90
17202;DHT22;8717;53.588;10.176;2024-02-16T10:31:31;12.30;99.90
17202;DHT22;8717;53.588;10.176;2024-02-16T10:33:59;12.40;99.90
17202;DHT22;8717;53.588;10.176;2024-02-16T10:36:29;12.50;99.90
17202;DHT22;8717;53.588;10.176;2024-02-16T10:38:58;12.60;99.90
17202;DHT22;8717;53.588;10.176;2024-02-16T10:41:27;12.80;99.90
17202;DHT22;8717;53.588;10.176;2024-02-16T10:43:55;13.00;99.90
17202;DHT22;8717;53.588;10.176;2024-02-16T10:46:23;13.10;99.90
17202;DHT22;8717;53.588;10.176;2024-02-16T10:48:50;13.20;99.90
17202;DHT22;8717;53.588;10.176;2024-02-16T10:51:21;13.40;99.90
17202;DHT22;8717;53.588;10.176;2024-02-16T10:53:52;13.50;99.90
17202;DHT22;8717;53.588;10.176;2024-02-16T10:56:27;13.50;99.90
17202;DHT22;8717;53.588;10.176;2024-02-16T10:58:54;13.50;99.90
17202;DHT22;8717;53.588;10.176;2024-02-16T11:01:21;13.60;99.90
17202;DHT22;8717;53.588;10.176;2024-02-16T11:03:49;13.50;99.90
17202;DHT22;8717;53.588;10.176;2024-02-16T11:06:16;13.50;99.90
17202;DHT22;8717;53.588;10.176;2024-02-16T11:08:43;13.50;99.90
17202;DHT22;8717;53.588;10.176;2024-02-16T11:11:22;13.50;99.90
17202;DHT22;8717;53.588;10.176;2024-02-16T11:13:49;13.40;99.90
17202;DHT22;8717;53.588;10.176;2024-02-16T11:16:17;13.50;99.90
17202;DHT22;8717;53.588;10.176;2024-02-16T11:18:46;13.50;99.90
17202;DHT22;8717;53.588;10.176;2024-02-16T11:21:14;13.50;99.90
17202;DHT22;8717;53.588;10.176;2024-02-16T11:23:42;13.50;99.90
17202;DHT22;8717;53.588;10.176;2024-02-16T11:26:10;13.60;99.90
17202;DHT22;8717;53.588;10.176;2024-02-16T11:28:41;13.60;99.90
17202;DHT22;8717;53.588;10.176;2024-02-16T11:31:08;13.60;99.90
17202;DHT22;8717;53.588;10.176;2024-02-16T11:33:35;13.70;99.90
17202;DHT22;8717;53.588;10.176;2024-02-16T11:36:03;13.80;99.90
17202;DHT22;8717;53.588;10.176;2024-02-16T11:38:31;13.80;99.90
17202;DHT22;8717;53.588;10.176;2024-02-16T11:40:59;13.90;99.90
17202;DHT22;8717;53.588;10.176;2024-02-16T11:43:26;14.00;99.90
17202;DHT22;8717;53.588;10.176;2024-02-16T11:45:54;14.00;99.90
17202;DHT22;8717;53.588;10.176;2024-02-16T11:48:22;14.10;99.90
17202;DHT22;8717;53.588;10.176;2024-02-16T11:50:49;14.10;99.90
17202;DHT22;8717;53.588;10.176;2024-02-16T11:53:17;14.20;99.90
17202;DHT22;8717;53.588;10.176;2024-02-16T11:55:48;14.20;99.90
17202;DHT22;8717;53.588;10.176;2024-02-16T11:58:16;14.20;99.90
17202;DHT22;8717;53.588;10.176;2024-02-16T12:00:44;14.20;99.90
17202;DHT22;8717;53.588;10.176;2024-02-16T12:03:17;14.20;99.90
17202;DHT22;8717;53.588;10.176;2024-02-16T12:05:49;14.20;99.90
17202;DHT22;8717;53.588;10.176;2024-02-16T12:08:16;14.30;99.90
17202;DHT22;8717;53.588;10.176;2024-02-16T12:10:44;14.30;99.90
17202;DHT22;8717;53.588;10.176;2024-02-16T12:13:10;14.40;99.90
17202;DHT22;8717;53.588;10.176;2024-02-16T12:15:38;14.50;99.90
17202;DHT22;8717;53.588;10.176;2024-02-16T12:18:05;14.60;99.90
17202;DHT22;8717;53.588;10.176;2024-02-16T12:20:33;14.60;99.90
17202;DHT22;8717;53.588;10.176;2024-02-16T12:23:10;14.70;99.90
17202;DHT22;8717;53.588;10.176;2024-02-16T12:25:37;14.70;99.90
17202;DHT22;8717;53.588;10.176;2024-02-16T12:28:04;14.70;99.90
17202;DHT22;8717;53.588;10.176;2024-02-16T12:30:33;14.70;99.90
17202;DHT22;8717;53.588;10.176;2024-02-16T12:33:00;14.80;99.90
17202;DHT22;8717;53.588;10.176;2024-02-16T12:35:27;14.80;99.90
17202;DHT22;8717;53.588;10.176;2024-02-16T12:37:55;14.80;99.90
17202;DHT22;8717;53.588;10.176;2024-02-16T12:40:22;14.80;99.90
17202;DHT22;8717;53.588;10.176;2024-02-16T12:42:49;14.80;99.90
17202;DHT22;8717;53.588;10.176;2024-02-16T12:45:15;14.80;99.90
17202;DHT22;8717;53.588;10.176;2024-02-16T12:47:42;14.80;99.90
17202;DHT22;8717;53.588;10.176;2024-02-16T12:50:09;14.70;99.90
17202;DHT22;8717;53.588;10.176;2024-02-16T12:52:38;14.80;99.90
17202;DHT22;8717;53.588;10.176;2024-02-16T12:55:07;14.80;99.90
17202;DHT22;8717;53.588;10.176;2024-02-16T12:57:35;14.70;99.90
17202;DHT22;8717;53.588;10.176;2024-02-16T13:00:04;14.70;99.90
17202;DHT22;8717;53.588;10.176;2024-02-16T13:02:31;14.70;99.90
17202;DHT22;8717;53.588;10.176;2024-02-16T13:04:57;14.60;99.90
17202;DHT22;8717;53.588;10.176;2024-02-16T13:07:24;14.60;99.90
17202;DHT22;8717;53.588;10.176;2024-02-16T13:09:51;14.60;99.90
17202;DHT22;8717;53.588;10.176;2024-02-16T13:12:20;14.60;99.90
17202;DHT22;8717;53.588;10.176;2024-02-16T13:14:49;14.50;99.90
17202;DHT22;8717;53.588;10.176;2024-02-16T13:17:16;14.50;99.90
17202;DHT22;8717;53.588;10.176;2024-02-16T13:19:42;14.50;99.90
17202;DHT22;8717;53.588;10.176;2024-02-16T13:22:09;14.40;99.90
17202;DHT22;8717;53.588;10.176;2024-02-16T13:24:36;14.30;99.90
17202;DHT22;8717;53.588;10.176;2024-02-16T13:27:02;14.30;99.90
17202;DHT22;8717;53.588;10.176;2024-02-16T13:29:32;14.20;99.90
17202;DHT22;8717;53.588;10.176;2024-02-16T13:32:00;14.20;99.90
17202;DHT22;8717;53.588;10.176;2024-02-16T13:34:27;14.10;99.90
17202;DHT22;8717;53.588;10.176;2024-02-16T13:36:53;14.10;99.90
17202;DHT22;8717;53.588;10.176;2024-02-16T13:39:20;14.10;99.90
17202;DHT22;8717;53.588;10.176;2024-02-16T13:41:48;14.10;99.90
17202;DHT22;8717;53.588;10.176;2024-02-16T13:44:16;14.10;99.90
17202;DHT22;8717;53.588;10.176;2024-02-16T13:46:46;14.00;99.90
17202;DHT22;8717;53.588;10.176;2024-02-16T13:49:14;14.00;99.90
17202;DHT22;8717;53.588;10.176;2024-02-16T13:51:41;14.00;99.90
17202;DHT22;8717;53.588;10.176;2024-02-16T13:54:08;14.00;99.90
17202;DHT22;8717;53.588;10.176;2024-02-16T13:56:35;13.90;99.90
17202;DHT22;8717;53.588;10.176;2024-02-16T13:59:04;13.90;99.90
17202;DHT22;8717;53.588;10.176;2024-02-16T14:01:32;13.90;99.90
17202;DHT22;8717;53.588;10.176;2024-02-16T14:04:01;13.90;99.90
17202;DHT22;8717;53.588;10.176;2024-02-16T14:06:29;13.90;99.90
17202;DHT22;8717;53.588;10.176;2024-02-16T14:08:57;13.90;99.90
17202;DHT22;8717;53.588;10.176;2024-02-16T14:11:23;13.90;99.90
17202;DHT22;8717;53.588;10.176;2024-02-16T14:13:50;13.90;99.90
17202;DHT22;8717;53.588;10.176;2024-02-16T14:16:17;13.90;99.90
17202;DHT22;8717;53.588;10.176;2024-02-16T14:18:44;13.90;99.90
17202;DHT22;8717;53.588;10.176;2024-02-16T14:21:12;13.90;99.90
17202;DHT22;8717;53.588;10.176;2024-02-16T14:23:38;13.90;99.90
17202;DHT22;8717;53.588;10.176;2024-02-16T14:26:05;13.90;99.90
17202;DHT22;8717;53.588;10.176;2024-02-16T14:28:33;13.90;99.90
17202;DHT22;8717;53.588;10.176;2024-02-16T14:31:00;13.90;99.90
17202;DHT22;8717;53.588;10.176;2024-02-16T14:33:28;13.90;99.90
17202;DHT22;8717;53.588;10.176;2024-02-16T14:35:55;13.90;99.90
17202;DHT22;8717;53.588;10.176;2024-02-16T14:38:23;13.90;99.90
17202;DHT22;8717;53.588;10.176;2024-02-16T14:40:49;13.80;99.90
17202;DHT22;8717;53.588;10.176;2024-02-16T14:43:16;13.80;99.90
17202;DHT22;8717;53.588;10.176;2024-02-16T14:45:43;13.80;99.90
17202;DHT22;8717;53.588;10.176;2024-02-16T14:48:10;13.80;99.90
17202;DHT22;8717;53.588;10.176;2024-02-16T14:50:37;13.70;99.90
17202;DHT22;8717;53.588;10.176;2024-02-16T14:53:04;13.70;99.90
17202;DHT22;8717;53.588;10.176;2024-02-16T14:55:32;13.70;99.90
17202;DHT22;8717;53.588;10.176;2024-02-16T14:57:58;13.70;99.90
17202;DHT22;8717;53.588;10.176;2024-02-16T15:00:25;13.60;99.90
17202;DHT22;8717;53.588;10.176;2024-02-16T15:02:52;13.60;99.90
17202;DHT22;8717;53.588;10.176;2024-02-16T15:05:19;13.60;99.90
17202;DHT22;8717;53.588;10.176;2024-02-16T15:07:46;13.60;99.90
17202;DHT22;8717;53.588;10.176;2024-02-16T15:10:12;13.50;99.90
17202;DHT22;8717;53.588;10.176;2024-02-16T15:12:41;13.50;99.90
17202;DHT22;8717;53.588;10.176;2024-02-16T15:15:08;13.50;99.90
17202;DHT22;8717;53.588;10.176;2024-02-16T15:17:35;13.40;99.90
17202;DHT22;8717;53.588;10.176;2024-02-16T15:20:03;13.40;99.90
17202;DHT22;8717;53.588;10.176;2024-02-16T15:22:30;13.40;99.90
17202;DHT22;8717;53.588;10.176;2024-02-16T15:24:57;13.30;99.90
17202;DHT22;8717;53.588;10.176;2024-02-16T15:27:24;13.20;99.90
17202;DHT22;8717;53.588;10.176;2024-02-16T15:29:53;13.10;99.90
17202;DHT22;8717;53.588;10.176;2024-02-16T15:32:19;13.10;99.90
17202;DHT22;8717;53.588;10.176;2024-02-16T15:34:46;13.00;99.90
17202;DHT22;8717;53.588;10.176;2024-02-16T15:37:18;12.90;99.90
17202;DHT22;8717;53.588;10.176;2024-02-16T15:39:46;12.80;99.90